createdAt,value
2019-05-01T00:02:26.812Z,5.70
2019-05-01T00:05:03.411Z,5.70
2019-05-01T00:07:34.208Z,5.70
2019-05-01T00:10:03.669Z,5.60
2019-05-01T00:12:33.039Z,5.60
2019-05-01T00:15:01.964Z,5.60
2019-05-01T00:17:31.190Z,5.50
2019-05-01T00:20:00.122Z,5.40
2019-05-01T00:22:29.277Z,5.40
2019-05-01T00:24:58.065Z,5.30
2019-05-01T00:27:27.187Z,5.30
2019-05-01T00:29:56.344Z,5.40
2019-05-01T00:32:25.409Z,5.30
2019-05-01T00:34:54.714Z,5.20
2019-05-01T00:37:23.532Z,5.20
2019-05-01T00:39:52.322Z,5.20
2019-05-01T00:42:21.177Z,5.20
2019-05-01T00:44:49.965Z,5.20
2019-05-01T00:47:18.756Z,5.10
2019-05-01T00:49:47.889Z,5.10
2019-05-01T00:52:16.988Z,5.10
2019-05-01T00:54:47.765Z,5.20
2019-05-01T00:57:40.786Z,5.20
2019-05-01T01:00:47.125Z,5.20
2019-05-01T01:03:16.064Z,5.20
2019-05-01T01:05:44.853Z,5.20
2019-05-01T01:08:13.741Z,5.20
2019-05-01T01:10:42.589Z,5.10
2019-05-01T01:13:11.402Z,5.10
2019-05-01T01:15:40.458Z,5.00
2019-05-01T01:18:09.646Z,5.00
2019-05-01T01:20:38.592Z,5.00
2019-05-01T01:23:07.546Z,4.90
2019-05-01T01:25:36.869Z,4.90
2019-05-01T01:28:05.838Z,4.90
2019-05-01T01:30:34.755Z,4.80
2019-05-01T01:33:03.943Z,4.80
2019-05-01T01:35:41.689Z,4.80
2019-05-01T01:38:10.734Z,4.80
2019-05-01T01:40:39.704Z,4.70
2019-05-01T01:43:26.437Z,4.70
2019-05-01T01:45:56.137Z,4.60
2019-05-01T01:48:25.190Z,4.50
2019-05-01T01:50:54.245Z,4.40
2019-05-01T01:53:23.817Z,4.40
2019-05-01T01:55:53.885Z,4.30
2019-05-01T01:58:23.503Z,4.30
2019-05-01T02:01:10.120Z,4.30
2019-05-01T02:03:41.656Z,4.30
2019-05-01T02:06:10.591Z,4.30
2019-05-01T02:08:40.073Z,4.30
2019-05-01T02:11:09.117Z,4.40
2019-05-01T02:13:38.260Z,4.40
2019-05-01T02:16:07.216Z,4.40
2019-05-01T02:18:36.453Z,4.40
2019-05-01T02:21:05.425Z,4.30
2019-05-01T02:23:34.396Z,4.20
2019-05-01T02:26:03.973Z,4.10
2019-05-01T02:28:40.229Z,4.00
2019-05-01T02:31:28.222Z,3.90
2019-05-01T02:33:51.031Z,4.00
2019-05-01T02:36:21.212Z,4.00
2019-05-01T02:38:51.251Z,4.10
2019-05-01T02:41:21.065Z,4.10
2019-05-01T02:43:51.966Z,4.10
2019-05-01T02:46:22.757Z,4.10
2019-05-01T02:48:58.975Z,4.10
2019-05-01T02:51:28.537Z,4.20
2019-05-01T02:53:59.036Z,4.10
2019-05-01T02:56:33.835Z,4.00
2019-05-01T02:59:05.146Z,4.00
2019-05-01T03:01:46.681Z,4.00
2019-05-01T03:04:06.838Z,4.00
2019-05-01T03:06:36.983Z,3.90
2019-05-01T03:09:08.197Z,3.90
2019-05-01T03:11:41.066Z,3.80
2019-05-01T03:14:17.676Z,3.80
2019-05-01T03:16:48.220Z,3.70
2019-05-01T03:19:37.927Z,3.60
2019-05-01T03:22:13.190Z,3.60
2019-05-01T03:24:42.235Z,3.60
2019-05-01T03:27:11.385Z,3.50
2019-05-01T03:29:40.561Z,3.50
2019-05-01T03:32:17.876Z,3.50
2019-05-01T03:34:40.636Z,3.60
2019-05-01T03:37:10.249Z,3.60
2019-05-01T03:39:39.888Z,3.60
2019-05-01T03:42:08.845Z,3.50
2019-05-01T03:44:38.111Z,3.40
2019-05-01T03:47:07.158Z,3.50
2019-05-01T03:49:36.305Z,3.50
2019-05-01T03:52:05.279Z,3.60
2019-05-01T03:54:34.334Z,3.70
2019-05-01T03:57:03.276Z,3.70
2019-05-01T03:59:32.591Z,3.70
2019-05-01T04:02:33.739Z,3.70
2019-05-01T04:04:57.018Z,3.70
2019-05-01T04:07:26.129Z,3.70
2019-05-01T04:09:55.192Z,3.70
2019-05-01T04:12:24.300Z,3.60
2019-05-01T04:14:53.469Z,3.70
2019-05-01T04:17:32.590Z,3.60
2019-05-01T04:20:01.746Z,3.70
2019-05-01T04:22:30.741Z,3.70
2019-05-01T04:24:59.640Z,3.70
2019-05-01T04:27:32.885Z,3.70
2019-05-01T04:30:10.212Z,3.70
2019-05-01T04:32:52.130Z,3.70
2019-05-01T04:35:19.385Z,3.60
2019-05-01T04:37:48.845Z,3.50
2019-05-01T04:40:19.100Z,3.40
2019-05-01T04:42:49.423Z,3.40
2019-05-01T04:45:19.146Z,3.30
2019-05-01T04:47:48.358Z,3.30
2019-05-01T04:50:17.518Z,3.30
2019-05-01T04:52:46.674Z,3.30
2019-05-01T04:55:16.057Z,3.20
2019-05-01T04:57:45.320Z,3.20
2019-05-01T05:00:14.750Z,3.20
2019-05-01T05:02:49.005Z,3.30
2019-05-01T05:05:18.191Z,3.30
2019-05-01T05:07:47.220Z,3.40
2019-05-01T05:10:16.820Z,3.30
2019-05-01T05:12:50.610Z,3.40
2019-05-01T05:15:38.634Z,3.30
2019-05-01T05:18:08.097Z,3.40
2019-05-01T05:20:37.665Z,3.50
2019-05-01T05:23:06.856Z,3.60
2019-05-01T05:25:35.876Z,3.60
2019-05-01T05:28:04.954Z,3.60
2019-05-01T05:30:34.812Z,3.60
2019-05-01T05:33:17.846Z,3.60
2019-05-01T05:35:39.376Z,3.60
2019-05-01T05:38:19.186Z,3.60
2019-05-01T05:40:48.609Z,3.60
2019-05-01T05:43:17.683Z,3.70
2019-05-01T05:45:47.152Z,3.80
2019-05-01T05:48:16.324Z,4.00
2019-05-01T05:51:04.538Z,4.10
2019-05-01T05:53:38.083Z,4.30
2019-05-01T05:56:10.621Z,4.40
2019-05-01T05:58:50.761Z,4.60
2019-05-01T06:01:45.190Z,4.70
2019-05-01T06:04:44.109Z,4.80
2019-05-01T06:07:33.002Z,4.80
2019-05-01T06:10:23.142Z,4.80
2019-05-01T06:13:08.794Z,4.90
2019-05-01T06:15:55.750Z,5.00
2019-05-01T06:18:39.313Z,5.10
2019-05-01T06:21:14.168Z,5.20
2019-05-01T06:23:56.966Z,5.30
2019-05-01T06:26:37.065Z,5.40
2019-05-01T06:29:03.547Z,5.70
2019-05-01T06:31:33.350Z,6.00
2019-05-01T06:34:02.646Z,6.40
2019-05-01T06:36:32.756Z,6.60
2019-05-01T06:39:06.724Z,6.80
2019-05-01T06:41:42.433Z,7.10
2019-05-01T06:44:17.937Z,7.40
2019-05-01T06:46:52.552Z,7.80
2019-05-01T06:49:37.748Z,8.30
2019-05-01T06:52:07.334Z,8.50
2019-05-01T06:54:36.662Z,8.70
2019-05-01T06:57:06.772Z,9.10
2019-05-01T06:59:38.584Z,9.50
2019-05-01T07:02:10.145Z,9.70
2019-05-01T07:04:40.225Z,10.00
2019-05-01T07:07:24.100Z,10.20
2019-05-01T07:09:44.091Z,10.40
2019-05-01T07:12:17.848Z,10.30
2019-05-01T07:14:50.915Z,10.50
2019-05-01T07:17:18.133Z,10.70
2019-05-01T07:20:05.564Z,10.80
2019-05-01T07:22:37.175Z,11.10
2019-05-01T07:25:07.130Z,11.30
2019-05-01T07:27:36.429Z,11.40
2019-05-01T07:30:28.567Z,11.50
2019-05-01T07:32:57.568Z,11.70
2019-05-01T07:35:26.941Z,11.90
2019-05-01T07:37:57.564Z,12.00
2019-05-01T07:40:30.035Z,11.90
2019-05-01T07:43:04.149Z,12.00
2019-05-01T07:45:44.751Z,12.30
2019-05-01T07:48:14.489Z,12.60
2019-05-01T07:50:43.527Z,13.00
2019-05-01T07:53:12.531Z,13.00
2019-05-01T07:55:41.627Z,13.00
2019-05-01T07:58:15.908Z,13.10
2019-05-01T08:00:54.525Z,13.20
2019-05-01T08:03:23.724Z,13.20
2019-05-01T08:05:52.649Z,13.40
2019-05-01T08:08:21.569Z,13.60
2019-05-01T08:10:50.863Z,13.60
2019-05-01T08:13:19.668Z,13.50
2019-05-01T08:15:48.568Z,13.80
2019-05-01T08:18:24.146Z,14.10
2019-05-01T08:21:03.336Z,14.30
2019-05-01T08:23:32.249Z,14.40
2019-05-01T08:26:03.893Z,14.40
2019-05-01T08:28:54.123Z,14.60
2019-05-01T08:31:36.178Z,15.00
2019-05-01T08:34:07.117Z,15.40
2019-05-01T08:36:36.012Z,15.70
2019-05-01T08:39:09.063Z,16.00
2019-05-01T08:41:37.764Z,16.30
2019-05-01T08:44:08.064Z,16.60
2019-05-01T08:46:56.022Z,16.80
2019-05-01T08:49:28.780Z,16.90
2019-05-01T08:51:57.613Z,17.10
2019-05-01T08:54:29.004Z,17.30
2019-05-01T08:56:58.088Z,17.60
2019-05-01T08:59:27.993Z,17.70
2019-05-01T09:02:08.891Z,17.90
2019-05-01T09:04:30.615Z,18.10
2019-05-01T09:06:58.046Z,18.20
2019-05-01T09:09:26.929Z,18.30
2019-05-01T09:11:56.329Z,18.60
2019-05-01T09:14:29.876Z,18.70
2019-05-01T09:16:56.525Z,18.70
2019-05-01T09:19:32.444Z,18.90
2019-05-01T09:22:01.418Z,19.10
2019-05-01T09:24:30.382Z,19.20
2019-05-01T09:27:18.814Z,19.20
2019-05-01T09:29:51.554Z,19.40
2019-05-01T09:32:21.011Z,19.40
2019-05-01T09:34:50.312Z,19.50
2019-05-01T09:37:19.254Z,19.70
2019-05-01T09:39:48.503Z,19.90
2019-05-01T09:42:22.903Z,19.90
2019-05-01T09:44:48.275Z,19.50
2019-05-01T09:47:17.223Z,19.60
2019-05-01T09:49:48.851Z,19.70
2019-05-01T09:52:24.883Z,19.80
2019-05-01T09:55:01.805Z,19.90
2019-05-01T09:57:30.704Z,20.20
2019-05-01T09:59:59.644Z,20.40
2019-05-01T10:02:28.572Z,20.40
2019-05-01T10:04:57.533Z,20.60
2019-05-01T10:07:28.957Z,20.60
2019-05-01T10:09:57.104Z,20.20
2019-05-01T10:12:25.933Z,19.90
2019-05-01T10:14:54.724Z,20.00
2019-05-01T10:17:23.521Z,20.20
2019-05-01T10:19:52.385Z,20.50
2019-05-01T10:22:21.205Z,20.70
2019-05-01T10:24:50.057Z,20.80
2019-05-01T10:27:22.459Z,20.30
2019-05-01T10:30:16.568Z,19.70
2019-05-01T10:32:48.040Z,19.50
2019-05-01T10:35:44.216Z,19.40
2019-05-01T10:38:13.050Z,19.50
2019-05-01T10:40:41.844Z,19.80
2019-05-01T10:43:10.996Z,20.10
2019-05-01T10:45:39.920Z,20.50
2019-05-01T10:48:08.725Z,20.80
2019-05-01T10:50:37.669Z,21.00
2019-05-01T10:53:06.582Z,21.10
2019-05-01T10:55:35.989Z,20.90
2019-05-01T10:58:04.942Z,20.90
2019-05-01T11:00:35.289Z,21.00
2019-05-01T11:03:04.312Z,20.80
2019-05-01T11:05:33.291Z,20.70
2019-05-01T11:08:02.157Z,20.50
2019-05-01T11:10:31.104Z,20.50
2019-05-01T11:13:00.033Z,20.70
2019-05-01T11:15:28.868Z,20.60
2019-05-01T11:17:57.657Z,20.70
2019-05-01T11:20:26.454Z,20.60
2019-05-01T11:22:55.246Z,20.50
2019-05-01T11:25:24.197Z,20.60
2019-05-01T11:27:52.996Z,20.80
2019-05-01T11:30:21.964Z,21.20
2019-05-01T11:33:15.610Z,21.40
2019-05-01T11:36:09.738Z,21.50
2019-05-01T11:38:49.414Z,21.40
2019-05-01T11:41:24.836Z,21.50
2019-05-01T11:43:53.616Z,21.60
2019-05-01T11:46:22.423Z,21.70
2019-05-01T11:48:51.199Z,21.20
2019-05-01T11:51:20.001Z,21.00
2019-05-01T11:53:48.785Z,20.80
2019-05-01T11:56:17.656Z,20.90
2019-05-01T11:58:46.446Z,21.20
2019-05-01T12:01:16.869Z,21.40
2019-05-01T12:03:45.652Z,21.70
2019-05-01T12:06:22.747Z,21.90
2019-05-01T12:08:44.969Z,21.60
2019-05-01T12:11:15.597Z,21.70
2019-05-01T12:13:44.517Z,21.90
2019-05-01T12:16:20.580Z,22.00
2019-05-01T12:18:49.435Z,22.10
2019-05-01T12:21:18.253Z,22.00
2019-05-01T12:23:47.033Z,21.60
2019-05-01T12:26:15.825Z,21.50
2019-05-01T12:28:44.628Z,21.70
2019-05-01T12:31:13.425Z,21.80
2019-05-01T12:33:42.250Z,22.00
2019-05-01T12:36:11.211Z,22.20
2019-05-01T12:38:40.003Z,22.10
2019-05-01T12:41:30.698Z,22.20
2019-05-01T12:43:59.564Z,22.20
2019-05-01T12:46:39.468Z,22.10
2019-05-01T12:49:08.309Z,22.30
2019-05-01T12:51:38.069Z,22.50
2019-05-01T12:54:12.536Z,22.50
2019-05-01T12:56:49.031Z,22.50
2019-05-01T12:59:17.866Z,22.50
2019-05-01T13:01:46.814Z,22.40
2019-05-01T13:04:15.765Z,22.40
2019-05-01T13:06:49.564Z,22.40
2019-05-01T13:09:15.928Z,22.10
2019-05-01T13:11:45.594Z,22.10
2019-05-01T13:14:14.403Z,22.20
2019-05-01T13:16:43.265Z,22.20
2019-05-01T13:19:12.136Z,22.30
2019-05-01T13:21:41.173Z,22.40
2019-05-01T13:24:10.062Z,22.50
2019-05-01T13:26:46.736Z,22.40
2019-05-01T13:29:24.049Z,22.40
2019-05-01T13:32:03.779Z,22.20
2019-05-01T13:34:33.122Z,22.30
2019-05-01T13:37:03.418Z,22.40
2019-05-01T13:39:32.564Z,22.50
2019-05-01T13:42:01.749Z,22.50
2019-05-01T13:44:30.624Z,22.60
2019-05-01T13:46:59.592Z,22.60
2019-05-01T13:49:28.468Z,22.70
2019-05-01T13:51:57.621Z,22.70
2019-05-01T13:54:26.501Z,22.80
2019-05-01T13:56:55.668Z,22.80
2019-05-01T13:59:24.496Z,22.80
2019-05-01T14:01:53.743Z,22.70
2019-05-01T14:04:23.680Z,22.60
2019-05-01T14:06:52.868Z,22.50
2019-05-01T14:09:26.775Z,22.50
2019-05-01T14:11:55.605Z,22.40
2019-05-01T14:14:24.535Z,22.40
2019-05-01T14:16:53.429Z,22.40
2019-05-01T14:19:22.640Z,22.40
2019-05-01T14:22:06.392Z,22.40
2019-05-01T14:24:40.564Z,22.30
2019-05-01T14:27:09.385Z,22.00
2019-05-01T14:29:38.199Z,21.80
2019-05-01T14:32:07.226Z,21.90
2019-05-01T14:34:36.207Z,21.90
2019-05-01T14:37:05.293Z,21.90
2019-05-01T14:39:34.184Z,21.60
2019-05-01T14:42:03.092Z,21.70
2019-05-01T14:44:36.845Z,21.80
2019-05-01T14:47:02.819Z,21.90
2019-05-01T14:49:31.881Z,21.80
2019-05-01T14:52:00.869Z,21.80
2019-05-01T14:54:29.848Z,21.90
2019-05-01T14:56:58.827Z,21.90
2019-05-01T14:59:27.824Z,21.80
2019-05-01T15:01:56.689Z,21.80
2019-05-01T15:04:25.987Z,21.70
2019-05-01T15:06:55.686Z,21.60
2019-05-01T15:09:24.742Z,21.60
2019-05-01T15:12:13.215Z,21.60
2019-05-01T15:14:58.655Z,21.60
2019-05-01T15:17:55.582Z,21.60
2019-05-01T15:20:25.498Z,21.50
2019-05-01T15:22:56.971Z,21.20
2019-05-01T15:25:26.901Z,21.10
2019-05-01T15:28:10.817Z,21.20
2019-05-01T15:30:49.533Z,21.10
2019-05-01T15:33:37.769Z,21.20
2019-05-01T15:36:07.008Z,21.00
2019-05-01T15:38:36.111Z,20.80
2019-05-01T15:41:39.388Z,20.80
2019-05-01T15:44:19.298Z,20.90
2019-05-01T15:46:48.373Z,20.90
2019-05-01T15:49:17.240Z,20.90
2019-05-01T15:51:46.185Z,20.90
2019-05-01T15:54:15.095Z,20.70
2019-05-01T15:56:44.305Z,20.70
2019-05-01T15:59:13.164Z,20.80
2019-05-01T16:01:42.412Z,20.80
2019-05-01T16:04:11.309Z,20.80
2019-05-01T16:06:40.533Z,20.80
2019-05-01T16:09:09.489Z,20.90
2019-05-01T16:12:07.097Z,20.90
2019-05-01T16:14:36.021Z,20.80
2019-05-01T16:17:05.149Z,20.70
2019-05-01T16:19:34.261Z,20.60
2019-05-01T16:22:03.234Z,20.50
2019-05-01T16:24:32.025Z,20.40
2019-05-01T16:27:00.925Z,20.40
2019-05-01T16:29:29.944Z,20.40
2019-05-01T16:31:59.020Z,20.30
2019-05-01T16:34:28.114Z,20.30
2019-05-01T16:36:57.975Z,20.20
2019-05-01T16:39:45.909Z,20.20
2019-05-01T16:42:14.803Z,20.10
2019-05-01T16:44:43.750Z,20.10
2019-05-01T16:47:12.661Z,20.10
2019-05-01T16:49:41.477Z,20.10
2019-05-01T16:52:10.928Z,20.10
2019-05-01T16:54:39.800Z,20.00
2019-05-01T16:57:12.502Z,20.00
2019-05-01T16:59:41.521Z,20.00
2019-05-01T17:02:29.799Z,20.00
2019-05-01T17:05:16.323Z,19.90
2019-05-01T17:07:55.649Z,19.80
2019-05-01T17:10:29.125Z,19.80
2019-05-01T17:12:58.173Z,19.70
2019-05-01T17:15:31.205Z,19.70
2019-05-01T17:18:00.171Z,19.60
2019-05-01T17:20:29.394Z,19.50
2019-05-01T17:22:58.552Z,19.50
2019-05-01T17:25:29.524Z,19.40
2019-05-01T17:27:58.153Z,19.40
2019-05-01T17:30:44.146Z,19.30
2019-05-01T17:33:19.449Z,19.30
2019-05-01T17:35:44.653Z,19.20
2019-05-01T17:38:13.684Z,19.10
2019-05-01T17:40:42.663Z,19.10
2019-05-01T17:43:13.502Z,19.00
2019-05-01T17:45:42.517Z,19.00
2019-05-01T17:48:11.794Z,18.90
2019-05-01T17:50:40.765Z,18.80
2019-05-01T17:53:09.959Z,18.70
2019-05-01T17:55:39.053Z,18.70
2019-05-01T17:58:08.203Z,18.60
2019-05-01T18:00:56.255Z,18.50
2019-05-01T18:03:37.798Z,18.50
2019-05-01T18:06:15.522Z,18.40
2019-05-01T18:08:44.425Z,18.40
2019-05-01T18:11:14.313Z,18.30
2019-05-01T18:13:44.148Z,18.20
2019-05-01T18:16:13.141Z,18.20
2019-05-01T18:18:42.154Z,18.10
2019-05-01T18:21:12.367Z,18.20
2019-05-01T18:24:07.289Z,18.10
2019-05-01T18:26:56.781Z,18.00
2019-05-01T18:29:40.052Z,17.90
2019-05-01T18:32:12.262Z,17.70
2019-05-01T18:34:41.220Z,17.60
2019-05-01T18:37:24.860Z,17.40
2019-05-01T18:39:54.070Z,17.30
2019-05-01T18:42:23.147Z,17.20
2019-05-01T18:44:52.209Z,17.10
2019-05-01T18:47:21.913Z,16.90
2019-05-01T18:49:51.125Z,16.70
2019-05-01T18:52:20.282Z,16.60
2019-05-01T18:54:49.536Z,16.60
2019-05-01T18:57:18.775Z,16.40
2019-05-01T18:59:47.613Z,16.30
2019-05-01T19:02:20.478Z,16.30
2019-05-01T19:04:47.239Z,16.20
2019-05-01T19:07:16.278Z,16.10
2019-05-01T19:09:45.312Z,16.00
2019-05-01T19:12:15.614Z,15.90
2019-05-01T19:14:44.862Z,15.80
2019-05-01T19:17:14.027Z,15.70
2019-05-01T19:19:43.045Z,15.60
2019-05-01T19:22:12.207Z,15.60
2019-05-01T19:24:41.371Z,15.50
2019-05-01T19:27:14.203Z,15.40
2019-05-01T19:29:42.509Z,15.30
2019-05-01T19:32:12.482Z,15.20
2019-05-01T19:34:41.663Z,15.10
2019-05-01T19:37:11.192Z,15.00
2019-05-01T19:39:43.770Z,14.90
2019-05-01T19:42:10.879Z,14.80
2019-05-01T19:44:40.180Z,14.70
2019-05-01T19:47:10.329Z,14.70
2019-05-01T19:49:39.381Z,14.60
2019-05-01T19:52:08.674Z,14.40
2019-05-01T19:54:37.664Z,14.30
2019-05-01T19:57:06.711Z,14.30
2019-05-01T19:59:35.714Z,14.20
2019-05-01T20:02:06.380Z,14.10
2019-05-01T20:04:35.451Z,14.10
2019-05-01T20:07:04.453Z,14.00
2019-05-01T20:09:33.918Z,13.90
2019-05-01T20:12:02.860Z,13.80
2019-05-01T20:14:31.677Z,13.70
2019-05-01T20:17:04.801Z,13.70
2019-05-01T20:19:31.834Z,13.60
2019-05-01T20:22:00.809Z,13.60
2019-05-01T20:24:29.952Z,13.50
2019-05-01T20:26:58.849Z,13.50
2019-05-01T20:29:27.903Z,13.40
2019-05-01T20:31:56.762Z,13.30
2019-05-01T20:34:25.802Z,13.30
2019-05-01T20:36:55.143Z,13.20
2019-05-01T20:39:24.273Z,13.20
2019-05-01T20:41:53.137Z,13.10
2019-05-01T20:44:23.961Z,13.00
2019-05-01T20:46:52.690Z,13.00
2019-05-01T20:49:21.580Z,12.90
2019-05-01T20:51:50.380Z,12.80
2019-05-01T20:54:19.468Z,12.70
2019-05-01T20:56:54.316Z,12.60
2019-05-01T20:59:23.236Z,12.50
2019-05-01T21:01:52.258Z,12.30
2019-05-01T21:04:41.321Z,12.30
2019-05-01T21:07:19.936Z,12.20
2019-05-01T21:09:52.565Z,12.10
2019-05-01T21:12:18.469Z,11.90
2019-05-01T21:14:49.678Z,11.70
2019-05-01T21:17:18.175Z,11.60
2019-05-01T21:19:46.966Z,11.40
2019-05-01T21:22:15.850Z,11.30
2019-05-01T21:24:44.699Z,11.10
2019-05-01T21:27:13.615Z,11.10
2019-05-01T21:29:44.375Z,11.00
2019-05-01T21:32:13.623Z,11.00
2019-05-01T21:34:43.558Z,11.00
2019-05-01T21:37:12.930Z,11.00
2019-05-01T21:39:43.638Z,11.00
2019-05-01T21:42:15.957Z,11.00
2019-05-01T21:44:43.806Z,11.00
2019-05-01T21:47:13.879Z,11.00
2019-05-01T21:49:43.145Z,11.00
2019-05-01T21:52:13.495Z,11.00
2019-05-01T21:54:42.710Z,11.00
2019-05-01T21:57:16.828Z,11.00
2019-05-01T21:59:44.683Z,10.90
2019-05-01T22:02:14.521Z,10.90
2019-05-01T22:04:43.344Z,10.90
2019-05-01T22:07:12.593Z,10.90
2019-05-01T22:09:45.721Z,10.80
2019-05-01T22:12:13.032Z,10.70
2019-05-01T22:15:11.091Z,10.70
2019-05-01T22:18:00.280Z,10.60
2019-05-01T22:20:35.881Z,10.60
2019-05-01T22:23:08.815Z,10.50
2019-05-01T22:25:41.473Z,10.50
2019-05-01T22:28:24.322Z,10.50
2019-05-01T22:31:12.507Z,10.40
2019-05-01T22:33:42.206Z,10.40
2019-05-01T22:36:11.401Z,10.40
2019-05-01T22:38:40.576Z,10.20
2019-05-01T22:41:11.470Z,10.10
2019-05-01T22:43:40.671Z,10.10
2019-05-01T22:46:15.576Z,10.00
2019-05-01T22:48:44.529Z,9.90
2019-05-01T22:51:19.269Z,9.80
2019-05-01T22:53:50.116Z,9.70
2019-05-01T22:56:18.997Z,9.60
2019-05-01T22:58:47.910Z,9.60
2019-05-01T23:01:18.119Z,9.50
2019-05-01T23:03:51.001Z,9.50
2019-05-01T23:06:19.906Z,9.50
2019-05-01T23:08:48.888Z,9.40
2019-05-01T23:11:20.388Z,9.40
2019-05-01T23:13:49.247Z,9.30
2019-05-01T23:16:19.892Z,9.30
2019-05-01T23:18:51.964Z,9.20
2019-05-01T23:21:19.662Z,9.10
2019-05-01T23:23:48.956Z,9.10
2019-05-01T23:26:18.609Z,9.00
2019-05-01T23:28:47.649Z,9.00
2019-05-01T23:31:16.593Z,8.90
2019-05-01T23:33:50.161Z,8.90
2019-05-01T23:36:23.282Z,8.80
2019-05-01T23:38:47.197Z,8.80
2019-05-01T23:41:16.088Z,8.80
2019-05-01T23:43:45.710Z,8.70
2019-05-01T23:46:14.662Z,8.70
2019-05-01T23:48:43.532Z,8.70
2019-05-01T23:51:12.549Z,8.70
2019-05-01T23:53:44.159Z,8.70
2019-05-01T23:56:11.995Z,8.70
2019-05-01T23:58:41.493Z,8.60
